sensor_id;sensor_type;location;lat;lon;timestamp;temperature;humidity
55771;DHT22;41687;-33.234;-60.334;2024-01-10T00:02:09;27.70;61.40
55771;DHT22;41687;-33.234;-60.334;2024-01-10T00:04:37;27.70;61.50
55771;DHT22;41687;-33.234;-60.334;2024-01-10T00:07:04;27.70;61.50
55771;DHT22;41687;-33.234;-60.334;2024-01-10T00:09:32;27.70;61.30
55771;DHT22;41687;-33.234;-60.334;2024-01-10T00:12:00;27.70;61.50
55771;DHT22;41687;-33.234;-60.334;2024-01-10T00:14:27;27.70;61.10
55771;DHT22;41687;-33.234;-60.334;2024-01-10T00:16:55;27.70;61.00
55771;DHT22;41687;-33.234;-60.334;2024-01-10T00:19:22;27.70;60.80
55771;DHT22;41687;-33.234;-60.334;2024-01-10T00:21:50;27.70;60.80
55771;DHT22;41687;-33.234;-60.334;2024-01-10T00:24:18;27.70;60.50
55771;DHT22;41687;-33.234;-60.334;2024-01-10T00:26:45;27.70;60.60
55771;DHT22;41687;-33.234;-60.334;2024-01-10T00:29:12;27.70;60.60
55771;DHT22;41687;-33.234;-60.334;2024-01-10T00:31:41;27.70;60.70
55771;DHT22;41687;-33.234;-60.334;2024-01-10T00:34:08;27.70;61.00
55771;DHT22;41687;-33.234;-60.334;2024-01-10T00:36:36;27.60;61.30
55771;DHT22;41687;-33.234;-60.334;2024-01-10T00:39:03;27.60;61.70
55771;DHT22;41687;-33.234;-60.334;2024-01-10T00:41:31;27.60;62.10
55771;DHT22;41687;-33.234;-60.334;2024-01-10T00:43:58;27.60;62.20
55771;DHT22;41687;-33.234;-60.334;2024-01-10T00:46:27;27.60;61.70
55771;DHT22;41687;-33.234;-60.334;2024-01-10T00:48:55;27.50;61.10
55771;DHT22;41687;-33.234;-60.334;2024-01-10T00:51:22;27.50;61.50
55771;DHT22;41687;-33.234;-60.334;2024-01-10T00:53:50;27.50;60.80
55771;DHT22;41687;-33.234;-60.334;2024-01-10T00:56:18;27.40;60.90
55771;DHT22;41687;-33.234;-60.334;2024-01-10T00:58:45;27.40;60.60
55771;DHT22;41687;-33.234;-60.334;2024-01-10T01:01:13;27.40;60.50
55771;DHT22;41687;-33.234;-60.334;2024-01-10T01:03:41;27.40;60.30
55771;DHT22;41687;-33.234;-60.334;2024-01-10T01:06:09;27.30;59.90
55771;DHT22;41687;-33.234;-60.334;2024-01-10T01:08:36;27.40;60.30
55771;DHT22;41687;-33.234;-60.334;2024-01-10T01:11:04;27.30;60.40
55771;DHT22;41687;-33.234;-60.334;2024-01-10T01:13:31;27.30;60.40
55771;DHT22;41687;-33.234;-60.334;2024-01-10T01:15:59;27.30;60.40
55771;DHT22;41687;-33.234;-60.334;2024-01-10T01:18:26;27.30;60.70
55771;DHT22;41687;-33.234;-60.334;2024-01-10T01:20:54;27.30;60.90
55771;DHT22;41687;-33.234;-60.334;2024-01-10T01:23:22;27.30;60.40
55771;DHT22;41687;-33.234;-60.334;2024-01-10T01:25:49;27.20;59.90
55771;DHT22;41687;-33.234;-60.334;2024-01-10T01:28:17;27.30;59.50
55771;DHT22;41687;-33.234;-60.334;2024-01-10T01:30:45;27.30;58.90
55771;DHT22;41687;-33.234;-60.334;2024-01-10T01:33:12;27.20;58.10
55771;DHT22;41687;-33.234;-60.334;2024-01-10T01:35:40;27.20;57.50
55771;DHT22;41687;-33.234;-60.334;2024-01-10T01:38:07;27.20;58.10
55771;DHT22;41687;-33.234;-60.334;2024-01-10T01:40:35;27.10;58.60
55771;DHT22;41687;-33.234;-60.334;2024-01-10T01:43:18;27.10;59.20
55771;DHT22;41687;-33.234;-60.334;2024-01-10T01:45:52;27.10;60.00
55771;DHT22;41687;-33.234;-60.334;2024-01-10T01:48:22;27.10;60.10
55771;DHT22;41687;-33.234;-60.334;2024-01-10T01:50:53;27.10;60.10
55771;DHT22;41687;-33.234;-60.334;2024-01-10T01:53:22;27.10;60.00
55771;DHT22;41687;-33.234;-60.334;2024-01-10T01:55:50;27.10;60.70
55771;DHT22;41687;-33.234;-60.334;2024-01-10T01:58:18;27.10;61.30
55771;DHT22;41687;-33.234;-60.334;2024-01-10T02:00:46;27.10;61.60
55771;DHT22;41687;-33.234;-60.334;2024-01-10T02:03:14;27.00;61.10
55771;DHT22;41687;-33.234;-60.334;2024-01-10T02:05:42;27.10;60.30
55771;DHT22;41687;-33.234;-60.334;2024-01-10T02:08:10;27.10;60.10
55771;DHT22;41687;-33.234;-60.334;2024-01-10T02:10:38;27.10;60.00
55771;DHT22;41687;-33.234;-60.334;2024-01-10T02:13:06;27.00;60.20
55771;DHT22;41687;-33.234;-60.334;2024-01-10T02:15:37;26.90;60.60
55771;DHT22;41687;-33.234;-60.334;2024-01-10T02:18:05;26.90;60.50
55771;DHT22;41687;-33.234;-60.334;2024-01-10T02:20:32;26.80;60.40
55771;DHT22;41687;-33.234;-60.334;2024-01-10T02:23:00;26.80;60.50
55771;DHT22;41687;-33.234;-60.334;2024-01-10T02:25:28;26.80;60.50
55771;DHT22;41687;-33.234;-60.334;2024-01-10T02:27:55;26.80;60.60
55771;DHT22;41687;-33.234;-60.334;2024-01-10T02:30:23;26.70;60.70
55771;DHT22;41687;-33.234;-60.334;2024-01-10T02:32:50;26.70;61.00
55771;DHT22;41687;-33.234;-60.334;2024-01-10T02:35:18;26.70;61.20
55771;DHT22;41687;-33.234;-60.334;2024-01-10T02:37:45;26.60;61.40
55771;DHT22;41687;-33.234;-60.334;2024-01-10T02:40:14;26.60;61.60
55771;DHT22;41687;-33.234;-60.334;2024-01-10T02:42:42;26.60;61.50
55771;DHT22;41687;-33.234;-60.334;2024-01-10T02:45:10;26.50;61.80
55771;DHT22;41687;-33.234;-60.334;2024-01-10T02:47:38;26.50;61.90
55771;DHT22;41687;-33.234;-60.334;2024-01-10T02:50:12;26.60;61.90
55771;DHT22;41687;-33.234;-60.334;2024-01-10T02:52:40;26.50;61.70
55771;DHT22;41687;-33.234;-60.334;2024-01-10T02:55:08;26.50;62.00
55771;DHT22;41687;-33.234;-60.334;2024-01-10T02:57:36;26.50;62.10
55771;DHT22;41687;-33.234;-60.334;2024-01-10T03:00:04;26.50;61.60
55771;DHT22;41687;-33.234;-60.334;2024-01-10T03:02:32;26.60;61.50
55771;DHT22;41687;-33.234;-60.334;2024-01-10T03:05:00;26.50;61.30
55771;DHT22;41687;-33.234;-60.334;2024-01-10T03:07:28;26.50;61.60
55771;DHT22;41687;-33.234;-60.334;2024-01-10T03:09:55;26.50;62.00
55771;DHT22;41687;-33.234;-60.334;2024-01-10T03:12:23;26.50;62.30
55771;DHT22;41687;-33.234;-60.334;2024-01-10T03:14:50;26.50;62.00
55771;DHT22;41687;-33.234;-60.334;2024-01-10T03:17:18;26.50;62.50
55771;DHT22;41687;-33.234;-60.334;2024-01-10T03:19:46;26.50;63.00
55771;DHT22;41687;-33.234;-60.334;2024-01-10T03:22:13;26.50;63.00
55771;DHT22;41687;-33.234;-60.334;2024-01-10T03:24:40;26.50;63.20
55771;DHT22;41687;-33.234;-60.334;2024-01-10T03:27:08;26.50;63.10
55771;DHT22;41687;-33.234;-60.334;2024-01-10T03:29:36;26.50;63.80
55771;DHT22;41687;-33.234;-60.334;2024-01-10T03:32:03;26.50;63.60
55771;DHT22;41687;-33.234;-60.334;2024-01-10T03:34:31;26.50;63.80
55771;DHT22;41687;-33.234;-60.334;2024-01-10T03:36:59;26.50;64.10
55771;DHT22;41687;-33.234;-60.334;2024-01-10T03:39:26;26.50;63.90
55771;DHT22;41687;-33.234;-60.334;2024-01-10T03:41:54;26.50;63.50
55771;DHT22;41687;-33.234;-60.334;2024-01-10T03:44:21;26.50;63.20
55771;DHT22;41687;-33.234;-60.334;2024-01-10T03:46:49;26.40;63.30
55771;DHT22;41687;-33.234;-60.334;2024-01-10T03:49:16;26.40;63.30
55771;DHT22;41687;-33.234;-60.334;2024-01-10T03:51:44;26.40;63.00
55771;DHT22;41687;-33.234;-60.334;2024-01-10T03:54:12;26.40;63.20
55771;DHT22;41687;-33.234;-60.334;2024-01-10T03:56:40;26.30;63.90
55771;DHT22;41687;-33.234;-60.334;2024-01-10T03:59:07;26.20;64.10
55771;DHT22;41687;-33.234;-60.334;2024-01-10T04:01:34;26.10;64.60
55771;DHT22;41687;-33.234;-60.334;2024-01-10T04:04:06;26.00;65.00
55771;DHT22;41687;-33.234;-60.334;2024-01-10T04:06:33;26.00;65.20
55771;DHT22;41687;-33.234;-60.334;2024-01-10T04:09:01;26.00;65.50
55771;DHT22;41687;-33.234;-60.334;2024-01-10T04:11:29;26.00;65.70
55771;DHT22;41687;-33.234;-60.334;2024-01-10T04:13:57;26.00;66.60
55771;DHT22;41687;-33.234;-60.334;2024-01-10T04:16:25;26.00;66.10
55771;DHT22;41687;-33.234;-60.334;2024-01-10T04:18:54;26.00;66.20
55771;DHT22;41687;-33.234;-60.334;2024-01-10T04:21:22;25.90;66.10
55771;DHT22;41687;-33.234;-60.334;2024-01-10T04:23:49;25.90;66.60
55771;DHT22;41687;-33.234;-60.334;2024-01-10T04:26:18;25.90;66.70
55771;DHT22;41687;-33.234;-60.334;2024-01-10T04:28:46;25.80;66.60
55771;DHT22;41687;-33.234;-60.334;2024-01-10T04:31:14;25.80;66.80
55771;DHT22;41687;-33.234;-60.334;2024-01-10T04:33:41;25.80;67.00
55771;DHT22;41687;-33.234;-60.334;2024-01-10T04:36:09;25.80;67.20
55771;DHT22;41687;-33.234;-60.334;2024-01-10T04:38:37;25.80;67.40
55771;DHT22;41687;-33.234;-60.334;2024-01-10T04:41:04;25.80;67.20
55771;DHT22;41687;-33.234;-60.334;2024-01-10T04:43:32;25.80;67.40
55771;DHT22;41687;-33.234;-60.334;2024-01-10T04:45:59;25.80;67.40
55771;DHT22;41687;-33.234;-60.334;2024-01-10T04:48:27;25.80;67.50
55771;DHT22;41687;-33.234;-60.334;2024-01-10T04:50:54;25.80;67.70
55771;DHT22;41687;-33.234;-60.334;2024-01-10T04:53:22;25.70;67.90
55771;DHT22;41687;-33.234;-60.334;2024-01-10T04:55:49;25.70;68.10
55771;DHT22;41687;-33.234;-60.334;2024-01-10T04:58:17;25.70;68.20
55771;DHT22;41687;-33.234;-60.334;2024-01-10T05:00:44;25.70;68.20
55771;DHT22;41687;-33.234;-60.334;2024-01-10T05:03:12;25.60;68.40
55771;DHT22;41687;-33.234;-60.334;2024-01-10T05:05:39;25.50;68.70
55771;DHT22;41687;-33.234;-60.334;2024-01-10T05:08:07;25.50;69.20
55771;DHT22;41687;-33.234;-60.334;2024-01-10T05:10:35;25.40;69.40
55771;DHT22;41687;-33.234;-60.334;2024-01-10T05:13:03;25.30;69.80
55771;DHT22;41687;-33.234;-60.334;2024-01-10T05:15:30;25.30;70.10
55771;DHT22;41687;-33.234;-60.334;2024-01-10T05:17:57;25.10;71.00
55771;DHT22;41687;-33.234;-60.334;2024-01-10T05:20:25;25.10;71.30
55771;DHT22;41687;-33.234;-60.334;2024-01-10T05:22:53;25.10;71.60
55771;DHT22;41687;-33.234;-60.334;2024-01-10T05:25:20;25.10;72.00
55771;DHT22;41687;-33.234;-60.334;2024-01-10T05:27:48;25.00;72.20
55771;DHT22;41687;-33.234;-60.334;2024-01-10T05:30:15;24.90;72.90
55771;DHT22;41687;-33.234;-60.334;2024-01-10T05:32:44;24.90;73.40
55771;DHT22;41687;-33.234;-60.334;2024-01-10T05:35:11;24.80;73.60
55771;DHT22;41687;-33.234;-60.334;2024-01-10T05:37:39;24.90;73.70
55771;DHT22;41687;-33.234;-60.334;2024-01-10T05:40:07;24.70;73.80
55771;DHT22;41687;-33.234;-60.334;2024-01-10T05:42:35;24.70;73.80
55771;DHT22;41687;-33.234;-60.334;2024-01-10T05:45:05;24.70;74.20
55771;DHT22;41687;-33.234;-60.334;2024-01-10T05:47:33;24.60;74.60
55771;DHT22;41687;-33.234;-60.334;2024-01-10T05:50:02;24.50;75.30
55771;DHT22;41687;-33.234;-60.334;2024-01-10T05:52:33;24.50;75.30
55771;DHT22;41687;-33.234;-60.334;2024-01-10T05:55:00;24.40;75.30
55771;DHT22;41687;-33.234;-60.334;2024-01-10T05:57:29;24.40;74.90
55771;DHT22;41687;-33.234;-60.334;2024-01-10T05:59:57;24.40;75.00
55771;DHT22;41687;-33.234;-60.334;2024-01-10T06:02:25;24.40;74.40
55771;DHT22;41687;-33.234;-60.334;2024-01-10T06:04:53;24.30;75.30
55771;DHT22;41687;-33.234;-60.334;2024-01-10T06:07:21;24.20;75.80
55771;DHT22;41687;-33.234;-60.334;2024-01-10T06:09:48;24.20;75.80
55771;DHT22;41687;-33.234;-60.334;2024-01-10T06:12:16;24.10;76.00
55771;DHT22;41687;-33.234;-60.334;2024-01-10T06:14:44;24.10;76.10
55771;DHT22;41687;-33.234;-60.334;2024-01-10T06:17:12;24.10;76.20
55771;DHT22;41687;-33.234;-60.334;2024-01-10T06:19:39;24.10;76.10
55771;DHT22;41687;-33.234;-60.334;2024-01-10T06:22:07;24.00;76.40
55771;DHT22;41687;-33.234;-60.334;2024-01-10T06:24:35;23.90;76.70
55771;DHT22;41687;-33.234;-60.334;2024-01-10T06:27:02;23.90;77.30
55771;DHT22;41687;-33.234;-60.334;2024-01-10T06:29:29;23.90;77.30
55771;DHT22;41687;-33.234;-60.334;2024-01-10T06:31:57;23.80;77.00
55771;DHT22;41687;-33.234;-60.334;2024-01-10T06:34:25;23.90;76.80
55771;DHT22;41687;-33.234;-60.334;2024-01-10T06:36:52;23.90;76.80
55771;DHT22;41687;-33.234;-60.334;2024-01-10T06:39:20;23.90;76.80
55771;DHT22;41687;-33.234;-60.334;2024-01-10T06:41:48;23.90;76.50
55771;DHT22;41687;-33.234;-60.334;2024-01-10T06:44:16;23.80;77.40
55771;DHT22;41687;-33.234;-60.334;2024-01-10T06:46:46;23.90;77.00
55771;DHT22;41687;-33.234;-60.334;2024-01-10T06:49:15;23.80;77.50
55771;DHT22;41687;-33.234;-60.334;2024-01-10T06:51:43;23.80;77.50
55771;DHT22;41687;-33.234;-60.334;2024-01-10T06:54:11;23.70;78.20
55771;DHT22;41687;-33.234;-60.334;2024-01-10T06:56:38;23.70;78.90
55771;DHT22;41687;-33.234;-60.334;2024-01-10T06:59:06;23.80;78.50
55771;DHT22;41687;-33.234;-60.334;2024-01-10T07:01:34;23.80;78.40
55771;DHT22;41687;-33.234;-60.334;2024-01-10T07:04:01;23.80;78.70
55771;DHT22;41687;-33.234;-60.334;2024-01-10T07:06:29;23.70;79.00
55771;DHT22;41687;-33.234;-60.334;2024-01-10T07:08:56;23.70;79.70
55771;DHT22;41687;-33.234;-60.334;2024-01-10T07:11:25;23.80;79.30
55771;DHT22;41687;-33.234;-60.334;2024-01-10T07:13:54;23.70;80.00
55771;DHT22;41687;-33.234;-60.334;2024-01-10T07:16:22;23.70;80.10
55771;DHT22;41687;-33.234;-60.334;2024-01-10T07:18:49;23.70;80.40
55771;DHT22;41687;-33.234;-60.334;2024-01-10T07:21:18;23.70;80.60
55771;DHT22;41687;-33.234;-60.334;2024-01-10T07:23:46;23.70;80.90
55771;DHT22;41687;-33.234;-60.334;2024-01-10T07:26:13;23.70;81.30
55771;DHT22;41687;-33.234;-60.334;2024-01-10T07:28:42;23.70;81.40
55771;DHT22;41687;-33.234;-60.334;2024-01-10T07:31:12;23.70;80.60
55771;DHT22;41687;-33.234;-60.334;2024-01-10T07:33:39;23.60;81.40
55771;DHT22;41687;-33.234;-60.334;2024-01-10T07:36:07;23.60;82.20
55771;DHT22;41687;-33.234;-60.334;2024-01-10T07:38:35;23.60;82.00
55771;DHT22;41687;-33.234;-60.334;2024-01-10T07:41:02;23.60;82.10
55771;DHT22;41687;-33.234;-60.334;2024-01-10T07:43:30;23.60;82.10
55771;DHT22;41687;-33.234;-60.334;2024-01-10T07:45:58;23.60;82.10
55771;DHT22;41687;-33.234;-60.334;2024-01-10T07:48:28;23.60;82.40
55771;DHT22;41687;-33.234;-60.334;2024-01-10T07:50:57;23.50;83.10
55771;DHT22;41687;-33.234;-60.334;2024-01-10T07:53:25;23.50;82.90
55771;DHT22;41687;-33.234;-60.334;2024-01-10T07:55:54;23.40;83.40
55771;DHT22;41687;-33.234;-60.334;2024-01-10T07:58:21;23.40;83.70
55771;DHT22;41687;-33.234;-60.334;2024-01-10T08:00:49;23.40;83.70
55771;DHT22;41687;-33.234;-60.334;2024-01-10T08:03:16;23.40;83.70
55771;DHT22;41687;-33.234;-60.334;2024-01-10T08:05:44;23.40;83.80
55771;DHT22;41687;-33.234;-60.334;2024-01-10T08:08:13;23.40;83.20
55771;DHT22;41687;-33.234;-60.334;2024-01-10T08:10:40;23.50;82.80
55771;DHT22;41687;-33.234;-60.334;2024-01-10T08:13:08;23.40;83.80
55771;DHT22;41687;-33.234;-60.334;2024-01-10T08:15:36;23.30;83.90
55771;DHT22;41687;-33.234;-60.334;2024-01-10T08:18:03;23.30;84.20
55771;DHT22;41687;-33.234;-60.334;2024-01-10T08:20:31;23.30;84.00
55771;DHT22;41687;-33.234;-60.334;2024-01-10T08:22:58;23.30;83.10
55771;DHT22;41687;-33.234;-60.334;2024-01-10T08:25:26;23.30;83.10
55771;DHT22;41687;-33.234;-60.334;2024-01-10T08:27:54;23.30;83.40
55771;DHT22;41687;-33.234;-60.334;2024-01-10T08:30:26;23.20;84.20
55771;DHT22;41687;-33.234;-60.334;2024-01-10T08:32:54;23.10;84.50
55771;DHT22;41687;-33.234;-60.334;2024-01-10T08:35:21;23.20;84.00
55771;DHT22;41687;-33.234;-60.334;2024-01-10T08:37:49;23.10;84.50
55771;DHT22;41687;-33.234;-60.334;2024-01-10T08:40:16;23.00;85.00
55771;DHT22;41687;-33.234;-60.334;2024-01-10T08:42:44;22.90;85.10
55771;DHT22;41687;-33.234;-60.334;2024-01-10T08:45:12;22.90;85.40
55771;DHT22;41687;-33.234;-60.334;2024-01-10T08:47:39;22.90;84.70
55771;DHT22;41687;-33.234;-60.334;2024-01-10T08:50:08;22.90;84.50
55771;DHT22;41687;-33.234;-60.334;2024-01-10T08:52:37;22.80;84.90
55771;DHT22;41687;-33.234;-60.334;2024-01-10T08:55:06;22.90;85.10
55771;DHT22;41687;-33.234;-60.334;2024-01-10T08:57:34;22.90;84.90
55771;DHT22;41687;-33.234;-60.334;2024-01-10T09:00:02;23.00;84.50
55771;DHT22;41687;-33.234;-60.334;2024-01-10T09:02:33;23.00;84.20
55771;DHT22;41687;-33.234;-60.334;2024-01-10T09:05:03;23.00;84.60
55771;DHT22;41687;-33.234;-60.334;2024-01-10T09:07:31;23.00;84.40
55771;DHT22;41687;-33.234;-60.334;2024-01-10T09:09:59;23.00;84.50
55771;DHT22;41687;-33.234;-60.334;2024-01-10T09:12:26;23.00;84.20
55771;DHT22;41687;-33.234;-60.334;2024-01-10T09:14:55;23.00;84.10
55771;DHT22;41687;-33.234;-60.334;2024-01-10T09:17:22;23.00;84.10
55771;DHT22;41687;-33.234;-60.334;2024-01-10T09:19:51;23.00;83.70
55771;DHT22;41687;-33.234;-60.334;2024-01-10T09:22:18;23.00;83.70
55771;DHT22;41687;-33.234;-60.334;2024-01-10T09:24:46;23.00;83.60
55771;DHT22;41687;-33.234;-60.334;2024-01-10T09:27:14;23.00;83.70
55771;DHT22;41687;-33.234;-60.334;2024-01-10T09:29:42;22.90;84.00
55771;DHT22;41687;-33.234;-60.334;2024-01-10T09:32:09;23.00;83.90
55771;DHT22;41687;-33.234;-60.334;2024-01-10T09:34:37;23.00;83.60
55771;DHT22;41687;-33.234;-60.334;2024-01-10T09:37:05;23.00;84.10
55771;DHT22;41687;-33.234;-60.334;2024-01-10T09:39:33;23.00;84.00
55771;DHT22;41687;-33.234;-60.334;2024-01-10T09:42:01;23.00;84.10
55771;DHT22;41687;-33.234;-60.334;2024-01-10T09:44:28;23.00;85.20
55771;DHT22;41687;-33.234;-60.334;2024-01-10T09:46:56;23.10;84.60
55771;DHT22;41687;-33.234;-60.334;2024-01-10T09:49:23;23.20;84.60
55771;DHT22;41687;-33.234;-60.334;2024-01-10T09:51:57;23.20;84.60
55771;DHT22;41687;-33.234;-60.334;2024-01-10T09:54:30;23.10;85.00
55771;DHT22;41687;-33.234;-60.334;2024-01-10T09:56:58;23.00;85.50
55771;DHT22;41687;-33.234;-60.334;2024-01-10T09:59:25;23.00;85.80
55771;DHT22;41687;-33.234;-60.334;2024-01-10T10:01:53;23.10;86.30
55771;DHT22;41687;-33.234;-60.334;2024-01-10T10:04:22;23.10;85.40
55771;DHT22;41687;-33.234;-60.334;2024-01-10T10:07:02;23.20;85.10
55771;DHT22;41687;-33.234;-60.334;2024-01-10T10:09:31;23.20;86.70
55771;DHT22;41687;-33.234;-60.334;2024-01-10T10:11:58;23.10;86.60
55771;DHT22;41687;-33.234;-60.334;2024-01-10T10:14:28;23.20;86.20
55771;DHT22;41687;-33.234;-60.334;2024-01-10T10:16:55;23.20;86.30
55771;DHT22;41687;-33.234;-60.334;2024-01-10T10:19:24;23.10;86.90
55771;DHT22;41687;-33.234;-60.334;2024-01-10T10:21:51;23.20;86.00
55771;DHT22;41687;-33.234;-60.334;2024-01-10T10:24:19;23.30;85.60
55771;DHT22;41687;-33.234;-60.334;2024-01-10T10:26:48;23.30;86.50
55771;DHT22;41687;-33.234;-60.334;2024-01-10T10:29:18;23.30;87.00
55771;DHT22;41687;-33.234;-60.334;2024-01-10T10:31:48;23.30;87.00
55771;DHT22;41687;-33.234;-60.334;2024-01-10T10:34:21;23.30;86.70
55771;DHT22;41687;-33.234;-60.334;2024-01-10T10:36:52;23.20;87.40
55771;DHT22;41687;-33.234;-60.334;2024-01-10T10:39:19;23.30;87.40
55771;DHT22;41687;-33.234;-60.334;2024-01-10T10:41:48;23.30;87.20
55771;DHT22;41687;-33.234;-60.334;2024-01-10T10:44:19;23.30;87.50
55771;DHT22;41687;-33.234;-60.334;2024-01-10T10:46:53;23.30;87.50
55771;DHT22;41687;-33.234;-60.334;2024-01-10T10:49:28;23.30;88.20
55771;DHT22;41687;-33.234;-60.334;2024-01-10T10:52:00;23.40;88.20
55771;DHT22;41687;-33.234;-60.334;2024-01-10T10:54:29;23.40;86.90
55771;DHT22;41687;-33.234;-60.334;2024-01-10T10:57:02;23.40;87.40
55771;DHT22;41687;-33.234;-60.334;2024-01-10T10:59:34;23.50;87.10
55771;DHT22;41687;-33.234;-60.334;2024-01-10T11:02:03;23.50;87.30
55771;DHT22;41687;-33.234;-60.334;2024-01-10T11:04:32;23.60;86.20
55771;DHT22;41687;-33.234;-60.334;2024-01-10T11:07:00;23.70;85.70
55771;DHT22;41687;-33.234;-60.334;2024-01-10T11:09:28;23.80;86.20
55771;DHT22;41687;-33.234;-60.334;2024-01-10T11:22:53;24.00;86.20
55771;DHT22;41687;-33.234;-60.334;2024-01-10T11:25:26;24.10;85.40
55771;DHT22;41687;-33.234;-60.334;2024-01-10T11:27:57;24.10;85.10
55771;DHT22;41687;-33.234;-60.334;2024-01-10T11:36:17;24.70;82.50
55771;DHT22;41687;-33.234;-60.334;2024-01-10T11:41:24;25.10;80.10
55771;DHT22;41687;-33.234;-60.334;2024-01-10T11:46:47;25.20;79.00
55771;DHT22;41687;-33.234;-60.334;2024-01-10T11:49:18;25.20;78.70
55771;DHT22;41687;-33.234;-60.334;2024-01-10T11:51:52;25.30;79.00
55771;DHT22;41687;-33.234;-60.334;2024-01-10T11:57:22;25.50;79.10
55771;DHT22;41687;-33.234;-60.334;2024-01-10T11:59:52;25.60;78.60
55771;DHT22;41687;-33.234;-60.334;2024-01-10T12:02:21;25.70;78.80
55771;DHT22;41687;-33.234;-60.334;2024-01-10T12:04:51;25.80;78.70
55771;DHT22;41687;-33.234;-60.334;2024-01-10T12:07:19;25.90;79.50
55771;DHT22;41687;-33.234;-60.334;2024-01-10T12:09:47;25.90;79.40
55771;DHT22;41687;-33.234;-60.334;2024-01-10T12:12:15;25.90;79.30
55771;DHT22;41687;-33.234;-60.334;2024-01-10T12:14:43;25.80;80.60
55771;DHT22;41687;-33.234;-60.334;2024-01-10T12:17:11;25.80;81.10
55771;DHT22;41687;-33.234;-60.334;2024-01-10T12:19:38;25.80;82.00
55771;DHT22;41687;-33.234;-60.334;2024-01-10T12:22:06;25.90;82.30
55771;DHT22;41687;-33.234;-60.334;2024-01-10T12:24:41;26.00;82.30
55771;DHT22;41687;-33.234;-60.334;2024-01-10T12:27:11;26.10;83.00
55771;DHT22;41687;-33.234;-60.334;2024-01-10T12:29:39;26.10;83.20
55771;DHT22;41687;-33.234;-60.334;2024-01-10T12:32:08;26.10;83.30
55771;DHT22;41687;-33.234;-60.334;2024-01-10T12:34:38;26.20;83.90
55771;DHT22;41687;-33.234;-60.334;2024-01-10T12:37:07;26.20;84.60
55771;DHT22;41687;-33.234;-60.334;2024-01-10T12:39:38;26.20;84.40
55771;DHT22;41687;-33.234;-60.334;2024-01-10T12:42:05;26.10;84.30
55771;DHT22;41687;-33.234;-60.334;2024-01-10T12:44:33;26.10;85.30
55771;DHT22;41687;-33.234;-60.334;2024-01-10T12:47:02;26.00;86.10
55771;DHT22;41687;-33.234;-60.334;2024-01-10T12:49:30;25.90;86.70
55771;DHT22;41687;-33.234;-60.334;2024-01-10T12:51:58;25.90;87.50
55771;DHT22;41687;-33.234;-60.334;2024-01-10T12:54:26;25.80;88.50
55771;DHT22;41687;-33.234;-60.334;2024-01-10T12:56:54;25.80;88.50
55771;DHT22;41687;-33.234;-60.334;2024-01-10T12:59:23;25.80;88.10
55771;DHT22;41687;-33.234;-60.334;2024-01-10T13:01:51;25.90;88.40
55771;DHT22;41687;-33.234;-60.334;2024-01-10T13:04:19;25.90;88.80
55771;DHT22;41687;-33.234;-60.334;2024-01-10T13:06:46;26.00;88.70
55771;DHT22;41687;-33.234;-60.334;2024-01-10T13:09:14;25.90;89.70
55771;DHT22;41687;-33.234;-60.334;2024-01-10T13:11:42;25.90;90.00
55771;DHT22;41687;-33.234;-60.334;2024-01-10T13:14:10;26.00;90.00
55771;DHT22;41687;-33.234;-60.334;2024-01-10T13:16:38;26.00;89.40
55771;DHT22;41687;-33.234;-60.334;2024-01-10T13:19:05;25.90;90.40
55771;DHT22;41687;-33.234;-60.334;2024-01-10T13:21:33;26.00;90.30
55771;DHT22;41687;-33.234;-60.334;2024-01-10T13:24:02;26.20;90.30
55771;DHT22;41687;-33.234;-60.334;2024-01-10T13:26:29;26.40;89.80
55771;DHT22;41687;-33.234;-60.334;2024-01-10T13:28:57;26.50;87.00
55771;DHT22;41687;-33.234;-60.334;2024-01-10T13:31:24;26.70;85.20
55771;DHT22;41687;-33.234;-60.334;2024-01-10T13:33:52;26.90;84.20
55771;DHT22;41687;-33.234;-60.334;2024-01-10T13:36:21;27.10;83.10
55771;DHT22;41687;-33.234;-60.334;2024-01-10T13:38:48;27.30;82.70
55771;DHT22;41687;-33.234;-60.334;2024-01-10T13:41:16;27.50;82.40
55771;DHT22;41687;-33.234;-60.334;2024-01-10T13:43:44;27.90;81.20
55771;DHT22;41687;-33.234;-60.334;2024-01-10T13:46:11;28.10;79.30
55771;DHT22;41687;-33.234;-60.334;2024-01-10T13:48:39;28.30;78.40
55771;DHT22;41687;-33.234;-60.334;2024-01-10T13:51:08;28.70;77.70
55771;DHT22;41687;-33.234;-60.334;2024-01-10T13:53:37;28.80;73.40
55771;DHT22;41687;-33.234;-60.334;2024-01-10T13:56:04;28.80;74.20
55771;DHT22;41687;-33.234;-60.334;2024-01-10T13:58:32;28.80;74.90
55771;DHT22;41687;-33.234;-60.334;2024-01-10T14:01:00;29.10;73.90
55771;DHT22;41687;-33.234;-60.334;2024-01-10T14:03:28;29.60;72.70
55771;DHT22;41687;-33.234;-60.334;2024-01-10T14:05:55;29.80;71.50
55771;DHT22;41687;-33.234;-60.334;2024-01-10T14:08:23;30.00;70.00
55771;DHT22;41687;-33.234;-60.334;2024-01-10T14:10:50;30.10;69.20
55771;DHT22;41687;-33.234;-60.334;2024-01-10T14:13:18;30.10;67.90
55771;DHT22;41687;-33.234;-60.334;2024-01-10T14:15:46;30.20;68.90
55771;DHT22;41687;-33.234;-60.334;2024-01-10T14:18:14;30.20;68.50
55771;DHT22;41687;-33.234;-60.334;2024-01-10T14:20:41;30.20;68.40
55771;DHT22;41687;-33.234;-60.334;2024-01-10T14:23:09;30.30;68.00
55771;DHT22;41687;-33.234;-60.334;2024-01-10T14:25:36;30.20;67.40
55771;DHT22;41687;-33.234;-60.334;2024-01-10T14:28:04;30.00;67.80
55771;DHT22;41687;-33.234;-60.334;2024-01-10T14:30:32;29.90;68.30
55771;DHT22;41687;-33.234;-60.334;2024-01-10T14:32:59;29.80;68.00
55771;DHT22;41687;-33.234;-60.334;2024-01-10T14:35:27;30.00;67.90
55771;DHT22;41687;-33.234;-60.334;2024-01-10T14:37:55;30.30;68.70
55771;DHT22;41687;-33.234;-60.334;2024-01-10T14:40:22;30.60;68.30
55771;DHT22;41687;-33.234;-60.334;2024-01-10T14:42:50;31.10;68.10
55771;DHT22;41687;-33.234;-60.334;2024-01-10T14:45:18;31.30;67.00
55771;DHT22;41687;-33.234;-60.334;2024-01-10T14:47:48;31.60;65.10
55771;DHT22;41687;-33.234;-60.334;2024-01-10T14:50:16;31.00;62.00
55771;DHT22;41687;-33.234;-60.334;2024-01-10T14:52:44;30.40;62.30
55771;DHT22;41687;-33.234;-60.334;2024-01-10T14:55:12;30.60;67.00
55771;DHT22;41687;-33.234;-60.334;2024-01-10T14:57:40;30.40;65.40
55771;DHT22;41687;-33.234;-60.334;2024-01-10T15:00:07;30.50;66.80
55771;DHT22;41687;-33.234;-60.334;2024-01-10T15:02:37;31.20;66.70
55771;DHT22;41687;-33.234;-60.334;2024-01-10T15:05:04;31.50;66.60
55771;DHT22;41687;-33.234;-60.334;2024-01-10T15:07:32;31.60;66.60
55771;DHT22;41687;-33.234;-60.334;2024-01-10T15:10:00;30.90;62.00
55771;DHT22;41687;-33.234;-60.334;2024-01-10T15:12:30;30.70;63.50
55771;DHT22;41687;-33.234;-60.334;2024-01-10T15:14:58;30.90;67.70
55771;DHT22;41687;-33.234;-60.334;2024-01-10T15:17:29;31.00;65.40
55771;DHT22;41687;-33.234;-60.334;2024-01-10T15:19:56;30.50;66.40